createdAt,value
2023-10-29T00:09:38.521Z,12.35
2023-10-29T00:13:54.945Z,12.34
2023-10-29T00:24:12.272Z,12.27
2023-10-29T00:28:27.604Z,12.23
2023-10-29T00:32:32.021Z,12.18
2023-10-29T00:36:36.192Z,12.16
2023-10-29T00:40:40.338Z,12.13
2023-10-29T00:44:43.347Z,12.11
2023-10-29T00:48:47.999Z,12.11
2023-10-29T00:52:51.351Z,12.09
2023-10-29T00:56:55.773Z,12.07
2023-10-29T01:00:58.850Z,12.07
2023-10-29T01:05:06.347Z,12.04
2023-10-29T01:09:09.841Z,12.01
2023-10-29T01:13:12.854Z,11.98
2023-10-29T01:17:15.846Z,11.95
2023-10-29T01:21:20.250Z,11.92
2023-10-29T01:25:23.776Z,11.86
2023-10-29T01:29:27.695Z,11.84
2023-10-29T01:33:30.714Z,11.80
2023-10-29T01:37:35.076Z,11.77
2023-10-29T01:41:38.169Z,11.76
2023-10-29T01:45:41.236Z,11.71
2023-10-29T01:49:44.318Z,11.69
2023-10-29T01:53:48.692Z,11.68
2023-10-29T01:57:51.815Z,11.65
2023-10-29T02:01:54.825Z,11.62
2023-10-29T02:05:58.085Z,11.56
2023-10-29T02:10:02.467Z,11.53
2023-10-29T02:14:05.511Z,11.55
2023-10-29T02:18:08.683Z,11.56
2023-10-29T02:22:13.180Z,11.52
2023-10-29T02:26:16.352Z,11.47
2023-10-29T02:30:19.441Z,11.45
2023-10-29T02:34:22.451Z,11.38
2023-10-29T02:38:26.866Z,11.31
2023-10-29T02:42:29.874Z,11.27
2023-10-29T02:46:32.975Z,11.26
2023-10-29T02:50:38.683Z,11.25
2023-10-29T02:54:43.147Z,11.20
2023-10-29T02:58:46.127Z,11.18
2023-10-29T03:02:49.238Z,11.15
2023-10-29T03:06:52.254Z,11.09
2023-10-29T03:10:57.425Z,11.02
2023-10-29T03:15:01.783Z,10.97
2023-10-29T03:19:04.894Z,10.96
2023-10-29T03:23:08.178Z,10.93
2023-10-29T03:27:12.598Z,10.93
2023-10-29T03:31:16.466Z,10.94
2023-10-29T03:35:19.881Z,10.97
2023-10-29T03:39:22.909Z,10.96
2023-10-29T03:43:27.329Z,10.97
2023-10-29T03:47:30.444Z,10.96
2023-10-29T03:51:34.554Z,10.97
2023-10-29T03:55:38.011Z,11.00
2023-10-29T03:59:43.574Z,11.04
2023-10-29T04:03:46.633Z,11.09
2023-10-29T04:07:49.793Z,11.13
2023-10-29T04:11:54.483Z,11.18
2023-10-29T04:16:01.045Z,11.25
2023-10-29T04:20:06.974Z,11.30
2023-10-29T04:24:10.276Z,11.35
2023-10-29T04:28:13.411Z,11.40
2023-10-29T04:32:18.014Z,11.45
2023-10-29T04:36:21.732Z,11.49
2023-10-29T04:40:24.925Z,11.56
2023-10-29T04:44:28.882Z,11.61
2023-10-29T04:48:33.462Z,11.64
2023-10-29T04:52:36.590Z,11.59
2023-10-29T04:56:39.793Z,11.54
2023-10-29T05:00:42.839Z,11.49
2023-10-29T05:04:47.490Z,11.47
2023-10-29T05:08:51.253Z,11.47
2023-10-29T05:12:54.377Z,11.50
2023-10-29T05:16:57.380Z,11.60
2023-10-29T05:21:03.036Z,11.74
2023-10-29T05:25:09.408Z,11.87
2023-10-29T05:29:12.380Z,12.06
2023-10-29T05:33:15.547Z,12.28
2023-10-29T05:37:20.042Z,12.39
2023-10-29T05:41:23.264Z,12.46
2023-10-29T05:45:26.221Z,12.52
2023-10-29T05:49:29.280Z,12.49
2023-10-29T05:53:33.690Z,12.37
2023-10-29T05:57:36.775Z,12.26
2023-10-29T06:01:39.850Z,12.19
2023-10-29T06:05:43.728Z,12.15
2023-10-29T06:09:52.016Z,12.15
2023-10-29T06:13:58.837Z,12.20
2023-10-29T06:18:06.404Z,12.29
2023-10-29T06:22:16.060Z,12.27
2023-10-29T06:26:28.520Z,12.26
2023-10-29T06:30:38.102Z,12.23
2023-10-29T06:34:49.356Z,12.23
2023-10-29T06:38:56.923Z,12.23
2023-10-29T06:43:05.309Z,12.23
2023-10-29T06:47:11.190Z,12.25
2023-10-29T06:51:20.620Z,12.25
2023-10-29T06:55:28.795Z,12.23
2023-10-29T06:59:38.061Z,12.21
2023-10-29T07:03:51.728Z,12.23
2023-10-29T07:08:05.161Z,12.28
2023-10-29T07:12:13.283Z,12.33
2023-10-29T07:16:25.796Z,12.42
2023-10-29T07:20:32.413Z,12.49
2023-10-29T07:24:39.675Z,12.55
2023-10-29T07:28:44.905Z,12.60
2023-10-29T07:32:52.598Z,12.65
2023-10-29T07:36:57.454Z,12.70
2023-10-29T07:41:03.199Z,12.74
2023-10-29T07:45:09.320Z,12.74
2023-10-29T07:49:15.071Z,12.71
2023-10-29T07:53:19.571Z,12.65
2023-10-29T07:57:24.798Z,12.59
2023-10-29T08:01:35.989Z,12.51
2023-10-29T08:06:00.282Z,12.44
2023-10-29T08:16:32.711Z,12.18
2023-10-29T08:20:43.935Z,12.10
2023-10-29T08:24:52.805Z,12.05
2023-10-29T08:28:59.589Z,12.01
2023-10-29T08:33:07.547Z,11.99
2023-10-29T08:58:24.200Z,12.03
2023-10-29T09:02:28.565Z,12.01
2023-10-29T09:06:37.624Z,12.00
2023-10-29T09:10:49.539Z,12.03
2023-10-29T09:15:34.299Z,12.07
2023-10-29T09:25:48.563Z,12.15
2023-10-29T09:29:55.902Z,12.18
2023-10-29T09:34:02.410Z,12.24
2023-10-29T09:38:12.970Z,12.30
2023-10-29T09:52:47.116Z,12.50
2023-10-29T09:57:17.768Z,12.57
2023-10-29T10:01:26.120Z,12.61
2023-10-29T10:05:32.744Z,12.69
2023-10-29T10:09:56.777Z,12.78
2023-10-29T10:14:06.722Z,12.82
2023-10-29T10:18:12.022Z,12.85
2023-10-29T10:22:36.549Z,12.92
2023-10-29T10:26:42.743Z,13.00
2023-10-29T10:30:53.983Z,13.12
2023-10-29T10:35:01.588Z,13.27
2023-10-29T10:39:06.792Z,13.41
2023-10-29T10:43:11.135Z,13.54
2023-10-29T10:47:20.760Z,13.60
2023-10-29T10:51:27.932Z,13.61
2023-10-29T10:55:51.210Z,13.59
2023-10-29T11:00:07.026Z,13.56
2023-10-29T11:04:12.517Z,13.49
2023-10-29T11:08:18.662Z,13.46
2023-10-29T11:12:23.139Z,13.47
2023-10-29T11:16:28.517Z,13.49
2023-10-29T11:21:16.557Z,13.50
2023-10-29T11:25:34.755Z,13.52
2023-10-29T11:29:50.779Z,13.45
2023-10-29T11:34:34.512Z,13.43
2023-10-29T11:39:07.110Z,13.43
2023-10-29T11:43:24.198Z,13.40
2023-10-29T11:47:27.599Z,13.41
2023-10-29T11:51:32.432Z,13.40
2023-10-29T11:55:48.640Z,13.41
2023-10-29T12:00:13.439Z,13.45
2023-10-29T12:04:46.516Z,13.52
2023-10-29T12:08:54.204Z,13.56
2023-10-29T12:13:01.119Z,13.64
2023-10-29T12:17:05.400Z,13.76
2023-10-29T12:21:14.685Z,13.92
2023-10-29T12:25:20.116Z,14.10
2023-10-29T12:29:26.852Z,14.30
2023-10-29T12:33:35.039Z,14.45
2023-10-29T12:37:40.586Z,14.48
2023-10-29T12:41:53.340Z,14.45
2023-10-29T12:46:57.029Z,14.39
2023-10-29T12:51:08.707Z,14.32
2023-10-29T12:55:15.365Z,14.28
2023-10-29T12:59:23.213Z,14.24
2023-10-29T13:03:27.208Z,14.22
2023-10-29T13:07:32.079Z,14.20
2023-10-29T13:11:35.181Z,14.18
2023-10-29T13:15:39.125Z,14.18
2023-10-29T13:19:43.360Z,14.18
2023-10-29T13:23:47.913Z,14.19
2023-10-29T13:27:50.991Z,14.19
2023-10-29T13:31:54.066Z,14.19
2023-10-29T13:35:57.160Z,14.19
2023-10-29T13:40:01.571Z,14.19
2023-10-29T13:44:04.694Z,14.16
2023-10-29T13:48:08.439Z,14.15
2023-10-29T13:52:11.513Z,14.13
2023-10-29T13:56:16.221Z,14.11
2023-10-29T14:00:20.442Z,14.11
2023-10-29T14:04:44.332Z,14.08
2023-10-29T14:09:09.795Z,14.09
2023-10-29T14:13:14.302Z,14.11
2023-10-29T14:17:18.203Z,14.12
2023-10-29T14:21:22.064Z,14.14
2023-10-29T14:25:25.287Z,14.15
2023-10-29T14:29:30.378Z,14.15
2023-10-29T14:33:33.535Z,14.15
2023-10-29T14:37:36.614Z,14.18
2023-10-29T14:41:39.697Z,14.18
2023-10-29T14:45:47.145Z,14.20
2023-10-29T14:49:50.245Z,14.22
2023-10-29T14:53:53.375Z,14.25
2023-10-29T14:57:56.485Z,14.27
2023-10-29T15:02:00.876Z,14.29
2023-10-29T15:06:10.850Z,14.33
2023-10-29T15:10:14.197Z,14.35
2023-10-29T15:14:17.378Z,14.34
2023-10-29T15:18:21.829Z,14.32
2023-10-29T15:22:25.532Z,14.29
2023-10-29T15:26:28.637Z,14.24
2023-10-29T15:30:32.090Z,14.21
2023-10-29T15:34:36.657Z,14.14
2023-10-29T15:38:40.664Z,14.05
2023-10-29T15:42:43.733Z,14.00
2023-10-29T15:46:46.809Z,13.95
2023-10-29T15:50:51.853Z,13.91
2023-10-29T15:54:54.965Z,13.86
2023-10-29T15:58:58.192Z,13.81
2023-10-29T16:03:02.776Z,13.77
2023-10-29T16:07:07.640Z,13.74
2023-10-29T16:11:11.623Z,13.72
2023-10-29T16:15:14.808Z,13.68
2023-10-29T16:19:17.932Z,13.67
2023-10-29T16:23:22.314Z,13.65
2023-10-29T16:27:26.633Z,13.63
2023-10-29T16:31:29.862Z,13.62
2023-10-29T16:35:33.913Z,13.61
2023-10-29T16:39:38.397Z,13.62
2023-10-29T16:43:41.436Z,13.61
2023-10-29T16:47:48.953Z,13.59
2023-10-29T16:51:59.052Z,13.61
2023-10-29T16:56:08.101Z,13.61
2023-10-29T17:00:13.127Z,13.63
2023-10-29T17:04:16.222Z,13.66
2023-10-29T17:08:19.234Z,13.75
2023-10-29T17:12:23.899Z,13.82
2023-10-29T17:16:27.306Z,13.94
2023-10-29T17:20:30.429Z,14.02
2023-10-29T17:24:33.418Z,14.07
2023-10-29T17:28:37.845Z,14.14
2023-10-29T17:32:41.447Z,14.16
2023-10-29T17:36:46.015Z,14.13
2023-10-29T17:40:49.118Z,14.11
2023-10-29T17:44:53.631Z,14.11
2023-10-29T17:48:56.671Z,14.10
2023-10-29T17:53:01.179Z,14.06
2023-10-29T17:57:04.678Z,14.02
2023-10-29T18:01:10.135Z,13.98
2023-10-29T18:05:13.959Z,13.95
2023-10-29T18:09:19.014Z,13.93
2023-10-29T18:13:22.153Z,13.91
2023-10-29T18:17:26.634Z,13.89
2023-10-29T18:21:31.521Z,13.86
2023-10-29T18:25:34.982Z,13.77
2023-10-29T18:29:37.923Z,13.79
2023-10-29T18:33:42.335Z,13.82
2023-10-29T18:37:50.653Z,13.86
2023-10-29T18:41:53.681Z,13.85
2023-10-29T18:45:56.756Z,13.80
2023-10-29T18:50:04.030Z,13.79
2023-10-29T18:54:08.655Z,13.84
2023-10-29T18:58:11.858Z,13.85
2023-10-29T19:02:15.094Z,13.94
2023-10-29T19:06:19.615Z,14.01
2023-10-29T19:10:22.626Z,14.04
2023-10-29T19:14:27.857Z,14.05
2023-10-29T19:18:30.876Z,14.10
2023-10-29T19:22:35.490Z,14.12
2023-10-29T19:26:38.559Z,14.11
2023-10-29T19:30:55.150Z,14.08
2023-10-29T19:35:08.274Z,14.07
2023-10-29T19:39:13.846Z,14.05
2023-10-29T19:43:16.874Z,14.05
2023-10-29T19:47:19.850Z,14.03
2023-10-29T19:51:22.923Z,13.99
2023-10-29T19:55:27.332Z,13.98
2023-10-29T19:59:30.352Z,13.96
2023-10-29T20:03:34.619Z,13.93
2023-10-29T20:07:38.026Z,13.91
2023-10-29T20:11:42.431Z,13.88
2023-10-29T20:15:45.433Z,13.83
2023-10-29T20:19:48.744Z,13.81
2023-10-29T20:23:52.604Z,13.82
2023-10-29T20:27:57.476Z,13.82
2023-10-29T20:32:02.072Z,13.81
2023-10-29T20:36:06.255Z,13.79
2023-10-29T20:40:10.089Z,13.77
2023-10-29T20:44:14.878Z,13.75
2023-10-29T20:48:17.860Z,13.70
2023-10-29T20:52:20.878Z,13.70
2023-10-29T20:56:23.894Z,13.69
2023-10-29T21:00:30.975Z,13.68
2023-10-29T21:04:35.625Z,13.68
2023-10-29T21:08:38.725Z,13.66
2023-10-29T21:12:41.709Z,13.67
2023-10-29T21:16:46.136Z,13.68
2023-10-29T21:20:49.196Z,13.67
2023-10-29T21:24:52.266Z,13.64
2023-10-29T21:28:55.441Z,13.59
2023-10-29T21:32:59.966Z,13.58
2023-10-29T21:37:03.745Z,13.56
2023-10-29T21:41:08.242Z,13.53
2023-10-29T21:45:12.427Z,13.53
2023-10-29T21:49:16.896Z,13.53
2023-10-29T21:53:19.864Z,13.50
2023-10-29T21:57:22.917Z,13.49
2023-10-29T22:01:26.091Z,13.45
2023-10-29T22:05:30.603Z,13.43
2023-10-29T22:09:34.679Z,13.41
2023-10-29T22:13:39.433Z,13.42
2023-10-29T22:17:42.505Z,13.41
2023-10-29T22:21:46.859Z,13.39
2023-10-29T22:25:49.840Z,13.37
2023-10-29T22:29:53.603Z,13.32
2023-10-29T22:33:56.607Z,13.28
2023-10-29T22:38:01.020Z,13.26
2023-10-29T22:42:04.857Z,13.22
2023-10-29T22:46:07.994Z,13.18
2023-10-29T22:50:11.098Z,13.15
2023-10-29T22:54:15.445Z,13.12
2023-10-29T22:58:18.471Z,13.09
2023-10-29T23:02:21.496Z,13.09
2023-10-29T23:06:24.532Z,13.02
2023-10-29T23:10:31.476Z,12.99
2023-10-29T23:14:34.699Z,12.92
2023-10-29T23:18:38.999Z,12.89
2023-10-29T23:22:42.082Z,12.85
2023-10-29T23:26:46.532Z,12.78
2023-10-29T23:30:49.583Z,12.71
2023-10-29T23:34:52.965Z,12.67
2023-10-29T23:38:55.898Z,12.65
2023-10-29T23:43:00.421Z,12.58
2023-10-29T23:47:03.486Z,12.50
2023-10-29T23:51:06.698Z,12.44
2023-10-29T23:55:10.598Z,12.37
2023-10-29T23:59:15.013Z,12.33
